Pedreira, Brazil
Current Conditions -  °F | °C
As of 2:00 AM on Monday 24 Nov 2014 (Local Time) from SBKP Reporting Station
Clear Clear  
Wind Chill: 70°   Ceiling: Unl
Heat Index: 70°   Visibility: 6mi
Dew Point: 64°   Wind: 13mph
Humidity: 83%   Direction: 110°ESE
Pressure: 30"   Gusts: NA
Location:  22.74°S, 46.9°W
Report Text: SBKP 240400Z 11011KT CAVOK 21/18 Q1016
Loading
Personal Weather Stations






























Interactive Weather Map New forecast layout! Learn more

10-Day Weather Forecast

Advertisements
Track Severe Weather on mobile